Latest Weather Observations for Cleve Airport

IDS60801

Issued at 8:31 am CST Monday 2 May 2016 (issued every 30 minutes, with the page automatically refreshed every 10 minutes)

About weather observations | Map of weather stations | Latest weather observations for SA | Other Formats
Station Details ID: 018116 Name: CLEVE AERODROME Lat: -33.71 Lon: 136.50 Height: 175.0 m
Data from the previous 72 hours. | See also: Recent months at Cleve Airport
Date/Time
CST
Temp
°C
App
Temp
°C
Dew
Point
Rel
Hum
%
Delta-T
°C
Wind Press
QNH
hPa
Press
MSL
hPa
Rain
since 9 am
mm
Dir
 
Spd
km/h
Gust
km/h
Spd
kts
Gust
kts
02/08:30am 13.8 7.7 6.7 62 3.5 NW 28 39 15 21 1015.5 - 0.2
02/08:00am 13.3 8.1 5.7 60 3.6 NW 22 32 12 17 1015.4 - 0.2
02/07:30am 12.1 7.3 5.5 64 3.1 NNW 20 28 11 15 1015.0 - 0.2
02/07:00am 12.0 7.4 5.6 65 3.0 NNW 19 24 10 13 1015.1 - 0.2
02/06:30am 11.4 6.7 5.3 66 2.8 NNW 19 24 10 13 1014.8 - 0.2
02/06:00am 11.7 6.8 5.1 64 3.1 NNW 20 28 11 15 1014.8 1014.7 0.2
02/05:30am 11.6 7.3 5.3 65 2.9 NNW 17 20 9 11 1014.9 - 0.2
02/05:00am 11.8 7.4 5.0 63 3.1 NNW 17 20 9 11 1014.7 - 0.2
02/04:30am 11.5 6.7 4.9 64 3.0 NNW 19 26 10 14 1014.7 - 0.2
02/04:00am 10.9 6.9 4.8 66 2.8 NNW 15 22 8 12 1015.3 - 0.2
02/03:30am 10.7 7.0 4.6 66 2.8 NNW 13 17 7 9 1015.5 - 0.2
02/03:00am 11.2 7.2 4.9 65 2.9 N 15 19 8 10 1015.6 1015.5 0.2
02/02:30am 10.5 6.1 4.9 68 2.6 N 17 20 9 11 1015.9 - 0.2
02/02:00am 10.7 6.7 5.0 68 2.6 N 15 17 8 9 1016.1 - 0.2
02/01:30am 12.4 8.4 5.1 61 3.4 NNW 15 20 8 11 1016.7 - 0.2
02/01:00am 12.8 9.2 5.2 60 3.6 N 13 17 7 9 1017.0 - 0.2
02/12:30am 12.6 9.1 5.5 62 3.3 N 13 17 7 9 1017.3 - 0.2
02/12:00am 12.6 9.2 5.8 63 3.2 N 13 15 7 8 1017.6 1017.5 0.2
 
Date/Time
CST
Temp
°C
App
Temp
°C
Dew
Point
Rel
Hum
%
Delta-T
°C
Wind Press
QNH
hPa
Press
MSL
hPa
Rain
since 9 am
mm
Dir
 
Spd
km/h
Gust
km/h
Spd
kts
Gust
kts
01/11:30pm 12.5 9.1 5.9 64 3.1 NNW 13 15 7 8 1017.9 - 0.2
01/11:00pm 12.1 9.1 5.9 66 2.9 NNW 11 13 6 7 1018.1 - 0.2
01/10:30pm 12.8 10.2 5.9 63 3.3 NNW 9 9 5 5 1018.5 - 0.2
01/10:00pm 13.5 11.1 5.4 58 3.8 NW 7 11 4 6 1018.7 - 0.2
01/09:30pm 13.8 11.0 5.2 56 4.1 WNW 9 11 5 6 1019.0 - 0.2
01/09:00pm 14.0 11.7 5.6 57 4.0 WNW 7 11 4 6 1018.9 1018.8 0.2
01/08:30pm 13.8 11.5 5.9 59 3.8 NW 7 9 4 5 1018.8 - 0.2
01/08:00pm 14.0 11.8 6.1 59 3.8 W 7 9 4 5 1018.8 - 0.2
01/07:30pm 14.1 11.5 6.2 59 3.8 W 9 11 5 6 1018.7 - 0.2
01/07:00pm 14.4 11.4 6.0 57 4.1 WSW 11 15 6 8 1018.6 - 0.2
01/06:30pm 14.6 12.0 5.9 56 4.2 WSW 9 11 5 6 1018.2 - 0.2
01/06:00pm 15.1 11.6 5.3 52 4.7 WSW 13 17 7 9 1017.9 1017.8 0.2
01/05:30pm 15.7 11.6 4.1 46 5.4 SW 15 22 8 12 1017.7 - 0.2
01/05:00pm 16.1 12.0 4.2 45 5.6 SW 15 20 8 11 1017.6 - 0.2
01/04:30pm 16.4 11.6 4.4 45 5.7 SW 19 26 10 14 1017.6 - 0.2
01/04:00pm 16.6 12.1 4.0 43 5.9 SW 17 20 9 11 1017.5 - 0.2
01/03:30pm 16.8 12.4 4.8 45 5.7 W 17 24 9 13 1017.7 - 0.2
01/03:00pm 17.0 12.5 4.3 43 6.0 WSW 17 24 9 13 1017.5 1017.4 0.2
01/02:30pm 16.9 12.1 4.6 44 5.9 WSW 19 28 10 15 1017.5 - 0.2
01/02:00pm 16.7 11.8 4.1 43 5.9 WSW 19 30 10 16 1017.5 - 0.2
01/01:30pm 16.5 11.7 5.5 48 5.3 SW 20 28 11 15 1017.5 - 0.2
01/01:00pm 16.8 11.1 4.8 45 5.7 SW 24 30 13 16 1017.7 - 0.2
01/12:30pm 17.6 12.8 4.5 42 6.3 WSW 19 28 10 15 1017.9 - 0.2
01/12:00pm 16.0 10.7 5.0 48 5.2 SW 22 30 12 16 1018.4 1018.2 0.2
01/11:30am 15.7 10.0 5.0 49 5.1 WSW 24 35 13 19 1018.5 - 0.0
01/11:00am 15.3 10.0 4.9 50 4.9 SW 22 37 12 20 1018.4 - 0.0
01/10:30am 14.7 9.2 5.8 55 4.3 SW 24 37 13 20 1018.6 - 0.0
01/10:00am 14.6 10.2 7.2 61 3.7 SW 20 30 11 16 1018.7 - 0.0
01/09:30am 13.7 9.2 7.0 64 3.3 SW 20 28 11 15 1018.4 - 0.0
01/09:00am 13.5 9.5 8.1 70 2.7 WSW 19 24 10 13 1018.2 1018.1 0.6
01/08:30am 12.7 9.4 8.2 74 2.2 W 15 20 8 11 1018.1 - 0.6
01/08:00am 11.8 8.4 7.7 76 2.0 W 15 20 8 11 1017.8 - 0.6
01/07:30am 11.1 7.7 7.6 79 1.7 W 15 20 8 11 1017.5 - 0.6
01/07:00am 10.5 7.1 7.6 82 1.4 WNW 15 20 8 11 1017.5 - 0.6
01/06:30am 10.4 6.6 7.5 82 1.4 W 17 22 9 12 1017.0 - 0.6
01/06:00am 10.8 7.5 8.0 83 1.4 WNW 15 22 8 12 1016.9 1016.8 0.6
01/05:30am 10.9 7.0 8.5 85 1.2 WNW 19 24 10 13 1016.7 - 0.6
01/05:00am 10.5 7.0 8.6 88 0.9 WNW 17 22 9 12 1016.3 - 0.6
01/04:30am 10.6 7.0 8.5 87 1.0 WNW 17 24 9 13 1015.8 - 0.6
01/04:00am 11.3 5.7 8.7 84 1.3 W 28 41 15 22 1015.1 - 0.6
01/03:30am 11.3 6.1 8.9 85 1.2 WNW 26 35 14 19 1014.2 - 0.6
01/03:00am 11.5 6.0 9.1 85 1.2 WNW 28 39 15 21 1013.8 1013.6 0.6
01/02:30am 11.9 6.9 9.5 85 1.2 W 26 41 14 22 1013.7 - 0.6
01/02:00am 12.0 5.9 9.9 87 1.1 W 32 46 17 25 1013.6 - 0.6
01/01:30am 12.0 7.0 9.7 86 1.2 WNW 26 35 14 19 1013.3 - 0.6
01/01:00am 12.2 8.0 9.9 86 1.2 WNW 22 33 12 18 1013.1 - 0.6
01/12:30am 12.2 8.1 10.1 87 1.1 WNW 22 32 12 17 1013.0 - 0.6
01/12:00am 12.9 7.9 9.4 79 1.8 W 26 39 14 21 1013.0 1012.8 0.2
 
Date/Time
CST
Temp
°C
App
Temp
°C
Dew
Point
Rel
Hum
%
Delta-T
°C
Wind Press
QNH
hPa
Press
MSL
hPa
Rain
since 9 am
mm
Dir
 
Spd
km/h
Gust
km/h
Spd
kts
Gust
kts
30/11:30pm 13.2 7.4 9.6 79 1.9 WNW 30 50 16 27 1012.7 - 0.2
30/11:28pm 13.2 7.4 9.6 79 1.9 WNW 30 50 16 27 1012.6 - 0.2
30/11:00pm 13.0 7.5 9.3 78 1.9 WNW 28 41 15 22 1012.4 - 0.2
30/10:30pm 13.4 8.0 9.6 78 2.0 WNW 28 41 15 22 1012.4 - 0.2
30/10:00pm 13.6 8.1 10.4 81 1.7 WNW 30 39 16 21 1011.8 - 0.2
30/09:30pm 14.0 8.0 10.2 78 2.0 WNW 32 43 17 23 1011.6 - 0.2
30/09:00pm 14.4 8.8 10.0 75 2.3 WNW 30 44 16 24 1011.4 1011.1 0.2
30/08:35pm 14.1 8.3 9.5 74 2.4 NW 30 48 16 26 1011.6 - 0.2
30/08:30pm 14.0 8.6 9.6 75 2.3 NW 28 43 15 23 1011.4 - 0.2
30/08:00pm 14.3 9.9 10.5 78 2.0 WNW 24 35 13 19 1011.1 - 0.2
30/07:30pm 15.1 10.5 9.7 70 2.8 WNW 24 44 13 24 1010.7 - 0.0
30/07:00pm 16.2 8.0 8.4 60 4.0 W 41 59 22 32 1010.2 - 0.0
30/06:34pm 17.4 9.0 9.1 58 4.3 W 43 61 23 33 1009.5 - 0.0
30/06:30pm 18.0 10.1 9.4 57 4.5 W 41 54 22 29 1009.4 - 0.0
30/06:00pm 20.2 9.4 5.8 39 7.2 W 52 72 28 39 1008.1 1007.7 0.0
30/05:57pm 20.7 9.8 5.5 37 7.6 W 52 72 28 39 1007.9 - 0.0
30/05:56pm 20.8 9.1 5.2 36 7.7 W 56 72 30 39 1007.8 - 0.0
30/05:47pm 22.2 14.4 4.7 32 8.7 W 35 54 19 29 1007.5 - 0.0
30/05:30pm 22.8 15.2 3.9 29 9.3 W 33 50 18 27 1007.0 - 0.0
30/05:00pm 24.3 15.8 0.6 21 11.1 WNW 35 57 19 31 1006.7 - 0.0
30/04:33pm 25.3 17.5 2.7 23 11.0 WNW 33 57 18 31 1006.6 - 0.0
30/04:30pm 25.2 17.8 3.8 25 10.7 WNW 32 48 17 26 1006.5 - 0.0
30/04:00pm 25.7 17.0 4.2 25 10.8 NW 39 57 21 31 1006.3 - 0.0
30/03:30pm 25.4 18.2 5.1 27 10.4 NW 32 54 17 29 1006.5 - 0.0
30/03:00pm 26.2 17.5 4.1 24 11.2 NNW 39 59 21 32 1006.5 1006.1 0.0
30/02:30pm 26.5 18.5 3.7 23 11.4 NNW 35 57 19 31 1006.6 - 0.0
30/02:03pm 25.4 16.9 3.4 24 10.9 NNW 37 63 20 34 1007.2 - 0.0
30/02:00pm 25.8 17.5 4.3 25 10.9 NNW 37 54 20 29 1007.3 - 0.0
30/01:33pm 25.7 18.2 4.2 25 10.8 NNW 33 52 18 28 1007.8 - 0.0
30/01:30pm 25.1 17.1 3.7 25 10.6 NNW 35 52 19 28 1008.0 - 0.0
30/01:05pm 25.4 17.4 1.5 21 11.4 NW 33 54 18 29 1008.2 - 0.0
30/01:00pm 25.2 17.3 2.0 22 11.2 NNW 33 48 18 26 1008.4 - 0.0
30/12:30pm 24.8 16.6 2.9 24 10.7 NNW 35 54 19 29 1009.1 - 0.0
30/12:28pm 24.7 16.9 2.8 24 10.7 NNW 33 54 18 29 1009.2 - 0.0
30/12:00pm 24.4 16.6 3.1 25 10.4 NW 33 48 18 26 1009.7 1009.3 0.0
30/11:31am 23.6 15.7 2.4 25 10.2 NNW 33 52 18 28 1010.4 - 0.0
30/11:30am 24.0 16.4 2.8 25 10.3 NNW 32 46 17 25 1010.4 - 0.0
30/11:04am 23.5 16.1 4.0 28 9.6 NNW 32 50 17 27 1010.8 - 0.0
30/11:00am 23.2 15.3 4.2 29 9.4 NNW 35 50 19 27 1010.9 - 0.0
30/10:30am 23.5 17.0 4.9 30 9.4 NNW 28 35 15 19 1011.4 - 0.0
30/10:00am 22.1 17.1 7.9 40 7.5 N 24 32 13 17 1011.8 - 0.0
30/09:30am 20.0 14.7 8.4 47 6.1 N 26 33 14 18 1012.1 - 0.0
30/09:00am 18.6 13.1 7.7 49 5.6 N 26 33 14 18 1012.4 1012.0 0.0
30/08:30am 17.2 12.6 8.1 55 4.7 N 22 30 12 16 1012.6 - 0.0
30/08:00am 15.0 9.5 7.5 61 3.7 N 26 32 14 17 1012.5 - 0.0
30/07:30am 14.2 8.6 7.3 63 3.4 N 26 32 14 17 1012.4 - 0.0
30/07:00am 13.5 8.0 7.5 67 3.0 N 26 30 14 16 1012.1 - 0.0
30/06:30am 13.6 8.1 7.6 67 3.0 N 26 32 14 17 1012.1 - 0.0
30/06:00am 13.4 8.5 8.5 72 2.5 N 24 30 13 16 1012.2 1011.9 0.0
30/05:30am 13.4 8.8 9.5 77 2.0 N 24 28 13 15 1012.2 - 0.0
30/05:00am 13.2 8.7 8.5 73 2.4 N 22 28 12 15 1012.1 - 0.0
30/04:30am 13.4 9.7 9.6 78 2.0 N 19 24 10 13 1012.0 - 0.0
30/04:00am 12.6 10.2 8.5 76 2.1 N 11 13 6 7 1012.0 - 0.0
30/03:30am 12.9 9.9 9.2 78 1.9 N 15 19 8 10 1012.1 - 0.0
30/03:00am 13.3 10.4 9.5 78 2.0 N 15 19 8 10 1012.4 1012.0 0.0
30/02:30am 14.1 11.8 10.5 79 1.9 NNW 13 17 7 9 1012.5 - 0.0
30/02:00am 13.6 11.4 10.8 83 1.5 NNW 13 17 7 9 1012.6 - 0.0
30/01:30am 13.4 11.7 11.1 86 1.2 NNW 11 15 6 8 1012.9 - 0.0
30/01:00am 13.3 11.9 10.8 85 1.3 WNW 9 11 5 6 1013.0 - 0.0
30/12:30am 13.9 11.5 11.4 85 1.3 NNW 15 17 8 9 1013.0 - 0.0
30/12:00am 14.0 11.9 11.3 84 1.4 NNW 13 17 7 9 1013.4 1013.0 0.0
 
Date/Time
CST
Temp
°C
App
Temp
°C
Dew
Point
Rel
Hum
%
Delta-T
°C
Wind Press
QNH
hPa
Press
MSL
hPa
Rain
since 9 am
mm
Dir
 
Spd
km/h
Gust
km/h
Spd
kts
Gust
kts
29/11:30pm 14.7 12.8 11.8 83 1.6 NW 13 19 7 10 1013.8 - 0.0
29/11:00pm 14.4 12.3 11.0 80 1.8 NW 13 17 7 9 1014.0 - 0.0
29/10:30pm 13.2 11.2 10.0 81 1.7 NW 11 13 6 7 1014.2 - 0.0
29/10:00pm 13.4 10.8 9.5 77 2.0 NNW 13 15 7 8 1014.4 - 0.0
29/09:30pm 13.5 10.7 8.4 71 2.6 N 13 15 7 8 1014.2 - 0.0
29/09:00pm 14.2 11.7 8.4 68 2.9 NNW 11 15 6 8 1014.1 1013.7 0.0
29/08:30pm 14.5 12.0 8.2 66 3.2 NW 11 13 6 7 1014.0 - 0.0
29/08:00pm 15.2 12.7 8.4 64 3.5 NW 11 13 6 7 1013.8 - 0.0
29/07:30pm 15.5 13.0 8.3 62 3.7 NNW 11 13 6 7 1013.5 - 0.0
29/07:00pm 17.1 14.6 8.3 56 4.5 NW 11 15 6 8 1013.0 - 0.0
29/06:30pm 18.5 15.6 8.2 51 5.3 W 13 19 7 10 1012.4 - 0.0
29/06:00pm 18.9 15.7 8.3 50 5.5 W 15 19 8 10 1012.1 1011.8 0.0
29/05:30pm 20.9 18.3 9.2 47 6.3 WSW 13 17 7 9 1011.7 - 0.0
29/05:00pm 22.1 18.6 8.9 43 7.1 WSW 17 24 9 13 1011.3 - 0.0
29/04:30pm 22.6 19.0 9.7 44 7.0 WSW 19 24 10 13 1011.2 - 0.0
29/04:00pm 22.3 18.5 9.8 45 6.8 WSW 20 30 11 16 1011.2 - 0.0
29/03:30pm 23.1 19.5 9.8 43 7.3 W 19 28 10 15 1010.9 - 0.0
29/03:00pm 23.2 19.4 9.9 43 7.3 W 20 32 11 17 1010.8 1010.4 0.0
29/02:30pm 23.7 20.1 10.4 43 7.4 W 20 30 11 16 1010.5 - 0.0
29/02:00pm 23.0 18.5 10.1 44 7.1 W 24 33 13 18 1010.7 - 0.0
29/01:30pm 23.2 18.4 10.3 44 7.1 W 26 37 14 20 1010.6 - 0.0
29/01:00pm 23.2 18.9 10.9 46 6.9 WNW 24 32 13 17 1010.8 - 0.0
29/12:30pm 23.2 19.8 11.3 47 6.7 WNW 20 32 11 17 1011.1 - 0.0
29/12:00pm 22.3 19.3 12.5 53 5.6 WNW 20 28 11 15 1011.3 1011.0 0.0
29/11:30am 21.7 18.6 14.4 63 4.3 WNW 24 33 13 18 1011.5 - 0.0
29/11:00am 21.3 18.2 14.5 65 4.0 WNW 24 35 13 19 1012.0 - 0.0
29/10:30am 21.0 17.1 14.4 66 3.9 NW 28 43 15 23 1011.9 - 0.0
29/10:00am 20.8 17.7 14.5 67 3.7 NW 24 32 13 17 1012.0 - 0.0
29/09:30am 20.0 17.1 14.1 69 3.4 NNW 22 35 12 19 1012.2 - 0.0
29/09:00am 18.3 15.4 14.0 76 2.5 N 22 32 12 17 1012.1 1011.8 1.4

Other Formats:

Comma delimited format used in spreadsheet applications
http://www.bom.gov.au/fwo/IDS60801/IDS60801.94662.axf

JavaScript Object Notation format (JSON) in row-major order
http://www.bom.gov.au/fwo/IDS60801/IDS60801.94662.json